Latest Weather Observations for Cape Moreton

IDQ60901

Issued at 3:45 pm EST Friday 19 September 2014 (issued every 10 minutes, with the page automatically refreshed every 10 minutes)

About weather observations | Map of Brisbane area stations | Latest observations for Brisbane area | Other Formats
Station Details ID: 040043 Name: CAPE MORETON LIGHTHOUSE Lat: -27.03 Lon: 153.47 Height: 99.9 m
Data from the previous 72 hours. | See also: Recent months at Cape Moreton
Date/Time
EST
Tmp

°C
App
Tmp
°C
Dew
Point
°C
Rel
Hum
%
Delta-T

°C
Wind Press
QNH
hPa
Press
MSL
hPa
Rain
since
9 am
mm
Dir
 
Spd
km/h
Gust
km/h
Spd
kts
Gust
kts
19/03:30pm 20.1 16.0 11.6 58 4.7 NE 24 28 13 15 1016.9 1016.6 0.0
19/03:00pm 20.5 16.9 11.7 57 4.9 NE 22 28 12 15 1017.0 1016.7 0.0
19/02:30pm 20.5 17.0 12.2 59 4.7 NE 22 28 12 15 1017.2 1016.9 0.0
19/02:00pm 20.7 17.5 11.9 57 4.9 ENE 20 26 11 14 1017.5 1017.2 0.0
19/01:30pm 21.0 18.6 12.7 59 4.7 ENE 17 20 9 11 1018.1 1017.8 0.0
19/01:00pm 22.1 20.8 12.6 55 5.4 NE 11 15 6 8 1018.6 1018.4 0.0
19/12:30pm 22.8 22.1 13.3 55 5.5 N 9 13 5 7 1019.2 1019.0 0.0
19/12:00pm 21.5 20.7 12.9 58 4.9 N 9 13 5 7 1019.7 1019.5 0.0
19/11:30am 21.3 20.2 11.9 55 5.3 N 9 13 5 7 1020.1 1019.9 0.0
19/11:00am 21.3 19.8 10.5 50 5.9 N 9 13 5 7 1020.6 1020.4 0.0
19/10:30am 21.9 20.7 11.6 52 5.8 N 9 13 5 7 1020.9 1020.7 0.0
19/10:00am 21.0 19.9 11.9 56 5.1 NNW 9 13 5 7 1021.2 1021.0 0.0
19/09:30am 21.1 20.1 12.3 57 5.0 N 9 13 5 7 1021.4 1021.2 0.0
19/09:00am 21.5 20.7 12.9 58 4.9 N 9 13 5 7 1021.5 1021.3 0.0
19/08:30am 20.3 19.5 11.8 58 4.7 N 7 9 4 5 1021.4 1021.2 0.0
19/08:00am 19.8 19.1 12.1 61 4.3 NNW 7 9 4 5 1021.3 1021.1 0.0
19/07:30am 19.3 18.8 12.8 66 3.7 NNW 7 9 4 5 1021.0 1020.8 0.0
19/07:00am 17.8 17.1 13.3 75 2.5 WNW 9 11 5 6 1020.6 1020.4 0.0
19/06:30am 16.8 15.4 13.5 81 1.9 W 13 13 7 7 1020.4 1020.2 0.0
19/06:00am 16.5 14.9 12.7 78 2.1 W 13 17 7 9 1020.2 1020.0 0.0
19/05:30am 18.3 15.6 10.4 60 4.2 NNE 15 20 8 11 1019.9 1019.7 0.0
19/05:00am 18.2 15.5 10.3 60 4.2 NNE 15 17 8 9 1019.7 1019.5 0.0
19/04:30am 18.1 15.4 10.2 60 4.2 NNE 15 19 8 10 1019.2 1019.0 0.0
19/04:00am 18.0 16.3 9.9 59 4.3 NNE 9 13 5 7 1019.3 1019.1 0.0
19/03:30am 18.2 17.1 10.1 59 4.3 ENE 6 7 3 4 1019.1 1018.9 0.0
19/03:00am 18.3 16.9 9.4 56 4.7 NNE 7 9 4 5 1019.0 1018.8 0.0
19/02:30am 18.2 16.4 9.5 57 4.6 NNE 9 11 5 6 1019.0 1018.8 0.0
19/02:00am 18.5 17.1 9.6 56 4.7 N 7 9 4 5 1019.1 1018.9 0.0
19/01:30am 18.6 17.2 9.7 56 4.7 N 7 9 4 5 1019.3 1019.1 0.0
19/01:00am 18.6 16.5 9.7 56 4.7 N 11 13 6 7 1019.4 1019.2 0.0
19/12:30am 18.5 16.7 9.6 56 4.7 N 9 11 5 6 1019.6 1019.4 0.0
19/12:00am 18.5 16.4 9.6 56 4.7 N 11 13 6 7 1019.7 1019.5 0.0
 
Date/Time
EST
Tmp

°C
App
Tmp
°C
Dew
Point
°C
Rel
Hum
%
Delta-T

°C
Wind Press
QNH
hPa
Press
MSL
hPa
Rain
since
9 am
mm
Dir
 
Spd
km/h
Gust
km/h
Spd
kts
Gust
kts
18/11:30pm 18.7 16.4 8.9 53 5.1 NNE 11 13 6 7 1019.9 1019.7 0.0
18/11:00pm 18.6 16.2 8.8 53 5.1 NE 11 15 6 8 1020.0 1019.8 0.0
18/10:30pm 18.6 16.2 8.8 53 5.1 NE 11 13 6 7 1020.1 1019.9 0.0
18/10:00pm 18.7 15.9 8.7 52 5.2 NE 13 17 7 9 1020.0 1019.8 0.0
18/09:30pm 18.8 15.2 8.2 50 5.5 NNE 17 20 9 11 1019.8 1019.6 0.0
18/09:00pm 18.9 14.7 8.3 50 5.5 NE 20 24 11 13 1019.6 1019.4 0.0
18/08:30pm 18.9 14.8 8.8 52 5.3 ENE 20 24 11 13 1019.4 1019.2 0.0
18/08:00pm 19.0 14.1 8.4 50 5.5 NE 24 30 13 16 1019.2 1019.0 0.0
18/07:30pm 19.1 14.4 9.3 53 5.2 NE 24 30 13 16 1018.9 1018.7 0.0
18/07:00pm 19.1 14.3 8.7 51 5.4 ENE 24 28 13 15 1018.4 1018.2 0.0
18/06:30pm 19.1 13.5 8.7 51 5.4 ENE 28 32 15 17 1017.9 1017.6 0.0
18/06:00pm 19.1 13.6 7.5 47 5.9 E 26 30 14 16 1017.6 1017.3 0.0
18/05:30pm 19.1 13.5 7.2 46 6.0 E 26 30 14 16 1017.1 1016.8 0.0
18/05:00pm 19.5 13.9 7.3 45 6.2 E 26 32 14 17 1016.7 1016.4 0.0
18/04:30pm 19.7 13.6 6.8 43 6.5 E 28 32 15 17 1016.3 1016.0 0.0
18/04:00pm 19.9 14.0 7.3 44 6.4 E 28 32 15 17 1016.0 1015.7 0.0
18/03:30pm 20.3 14.9 6.3 40 7.0 E 24 26 13 14 1015.9 1015.6 0.0
18/03:00pm 20.5 15.3 7.2 42 6.8 E 24 30 13 16 1015.9 1015.6 0.0
18/02:30pm 20.9 14.8 4.9 35 7.9 E 26 30 14 16 1016.0 1015.7 0.0
18/02:00pm 21.2 16.0 7.1 40 7.2 ESE 24 28 13 15 1016.3 1016.0 0.0
18/01:30pm 22.0 17.4 5.4 34 8.3 ESE 19 22 10 12 1016.5 1016.2 0.0
18/01:00pm 22.1 17.5 6.3 36 8.0 SE 20 22 11 12 1017.0 1016.7 0.0
18/12:30pm 22.5 17.5 6.3 35 8.3 SE 22 28 12 15 1017.3 1017.0 0.0
18/12:00pm 22.8 18.2 5.7 33 8.6 SE 19 26 10 14 1017.8 1017.5 0.0
18/11:30am 22.3 17.3 4.4 31 8.8 SSE 20 28 11 15 1018.3 1018.1 0.0
18/11:00am 22.9 18.5 4.9 31 9.0 S 17 24 9 13 1018.7 1018.5 0.0
18/10:30am 21.9 16.0 1.5 26 9.5 S 22 33 12 18 1019.0 1018.8 0.0
18/10:00am 21.8 16.0 4.4 32 8.5 SSE 24 33 13 18 1019.2 1019.0 0.0
18/09:30am 21.1 14.6 2.9 30 8.6 S 26 35 14 19 1019.4 1019.2 0.0
18/09:00am 21.2 14.8 3.0 30 8.6 S 26 39 14 21 1019.5 1019.3 0.0
18/08:30am 20.3 14.2 2.6 31 8.3 S 24 37 13 20 1019.4 1019.2 0.0
18/08:00am 20.3 15.0 4.8 36 7.6 SSW 22 33 12 18 1019.0 1018.8 0.0
18/07:30am 19.3 15.5 7.7 47 6.0 SW 17 28 9 15 1018.9 1018.7 0.0
18/07:00am 17.8 14.0 7.5 51 5.2 SW 17 24 9 13 1018.4 1018.2 0.0
18/06:30am 17.0 12.7 6.8 51 5.1 SW 19 26 10 14 1018.3 1018.1 0.0
18/06:00am 16.6 12.5 6.4 51 5.0 SW 17 22 9 12 1017.8 1017.5 0.0
18/05:30am 17.0 12.6 6.5 50 5.2 SW 19 22 10 12 1017.5 1017.2 0.0
18/05:00am 17.3 12.4 6.8 50 5.2 SW 22 28 12 15 1017.1 1016.8 0.0
18/04:30am 16.8 12.6 8.2 57 4.4 SW 20 22 11 12 1016.8 1016.5 0.0
18/04:00am 17.2 12.7 8.4 56 4.5 SW 22 26 12 14 1016.2 1015.9 0.0
18/03:30am 17.7 12.3 6.3 47 5.6 SW 24 30 13 16 1016.1 1015.8 0.0
18/03:00am 18.1 12.0 6.6 47 5.7 SW 28 35 15 19 1015.7 1015.4 0.0
18/02:30am 18.3 12.8 5.8 44 6.1 SW 24 32 13 17 1015.5 1015.2 0.0
18/02:00am 18.7 13.6 5.9 43 6.3 SW 22 26 12 14 1015.5 1015.2 0.0
18/01:30am 18.7 14.2 6.9 46 5.9 SW 20 24 11 13 1015.6 1015.3 0.0
18/01:00am 19.3 15.8 8.6 50 5.6 SSW 17 20 9 11 1015.4 1015.1 0.0
18/12:30am 19.9 15.6 7.9 46 6.2 SSW 20 24 11 13 1015.0 1014.7 0.0
18/12:00am 21.0 16.5 6.2 38 7.5 S 19 24 10 13 1014.7 1014.4 0.0
 
Date/Time
EST
Tmp

°C
App
Tmp
°C
Dew
Point
°C
Rel
Hum
%
Delta-T

°C
Wind Press
QNH
hPa
Press
MSL
hPa
Rain
since
9 am
mm
Dir
 
Spd
km/h
Gust
km/h
Spd
kts
Gust
kts
17/11:30pm 20.4 16.1 7.7 44 6.6 SW 20 26 11 14 1014.9 1014.6 0.0
17/11:00pm 20.8 15.1 8.4 45 6.5 SW 28 37 15 20 1014.4 1014.1 0.0
17/10:30pm 20.1 16.0 12.6 62 4.2 SW 26 33 14 18 1014.3 1014.0 0.0
17/10:00pm 20.5 18.0 14.2 67 3.7 SW 20 24 11 13 1014.6 1014.3 0.0
17/09:30pm 20.7 19.1 16.1 75 2.8 WSW 19 20 10 11 1014.6 1014.3 0.0
17/09:00pm 20.8 19.2 16.0 74 2.9 W 19 20 10 11 1014.4 1014.1 0.0
17/08:30pm 20.5 19.6 17.7 84 1.7 NW 19 24 10 13 1014.2 1013.9 0.0
17/08:00pm 20.4 19.6 18.0 86 1.5 NNW 19 22 10 12 1014.1 1013.8 0.0
17/07:30pm 20.4 20.0 18.0 86 1.5 N 17 20 9 11 1013.7 1013.4 0.0
17/07:00pm 20.5 19.6 17.7 84 1.7 N 19 26 10 14 1013.4 1013.1 0.0
17/06:30pm 20.5 18.8 17.3 82 2.0 N 22 28 12 15 1013.0 1012.7 0.0
17/06:00pm 20.4 18.4 17.4 83 1.8 N 24 28 13 15 1012.4 1012.2 0.0
17/05:30pm 20.5 18.8 17.1 81 2.1 N 22 30 12 16 1012.2 1012.0 0.0
17/05:00pm 20.9 17.7 15.4 71 3.3 NNE 26 32 14 17 1011.8 1011.6 0.0
17/04:30pm 21.1 18.2 15.0 68 3.6 NNE 24 28 13 15 1011.6 1011.4 0.0
17/04:00pm 21.7 19.1 13.9 61 4.6 NNE 20 26 11 14 1011.5 1011.3 0.0
17/03:30pm 22.0 19.9 14.6 63 4.4 NNE 19 24 10 13 1011.6 1011.4 0.0
17/03:00pm 22.0 18.9 14.6 63 4.4 NNE 24 28 13 15 1011.7 1011.5 0.0
17/02:30pm 22.2 20.0 14.8 63 4.4 N 20 24 11 13 1011.9 1011.7 0.0
17/02:00pm 22.6 21.1 15.4 64 4.3 N 17 20 9 11 1012.4 1012.2 0.0
17/01:30pm 22.7 21.3 16.5 68 3.8 N 19 24 10 13 1012.9 1012.6 0.0
17/01:00pm 22.2 20.5 16.2 69 3.6 N 20 26 11 14 1013.2 1012.9 0.0
17/12:30pm 22.4 21.5 16.9 71 3.4 NNW 17 20 9 11 1013.5 1013.2 0.0
17/12:00pm 22.0 21.0 16.5 71 3.4 NNW 17 22 9 12 1013.8 1013.5 0.0
17/11:30am 21.4 19.1 15.7 70 3.4 NNW 22 28 12 15 1014.3 1014.0 0.0
17/11:00am 20.7 18.6 16.1 75 2.8 NW 22 26 12 14 1014.7 1014.4 0.0
17/10:30am 20.4 18.4 15.6 74 2.9 NW 20 26 11 14 1015.2 1014.9 0.0
17/10:00am 20.7 18.6 15.3 71 3.2 NW 20 26 11 14 1015.5 1015.2 0.0
17/09:30am 20.3 18.7 15.9 76 2.6 NW 19 24 10 13 1015.7 1015.4 0.0
17/09:00am 20.3 19.4 15.9 76 2.6 WNW 15 22 8 12 1015.7 1015.4 0.4
17/08:30am 19.9 18.0 15.7 77 2.5 WNW 20 30 11 16 1015.4 1015.1 0.4
17/08:00am 19.5 16.6 16.0 80 2.1 WNW 26 35 14 19 1015.4 1015.1 0.4
17/07:30am 19.0 16.0 15.9 82 1.8 WNW 26 33 14 18 1015.1 1014.8 0.4
17/07:00am 18.7 14.5 15.8 83 1.7 NW 32 44 17 24 1014.9 1014.6 0.4
17/06:30am 18.5 13.8 15.9 85 1.5 NW 35 48 19 26 1014.4 1014.1 0.4
17/06:00am 18.4 13.8 16.2 87 1.3 NW 35 44 19 24 1014.2 1013.9 0.4
17/05:30am 18.4 13.4 16.2 87 1.3 NW 37 48 20 26 1014.1 1013.8 0.4
17/05:00am 18.4 14.0 16.7 90 1.0 NW 35 50 19 27 1013.9 1013.6 0.4
17/04:30am 18.6 14.8 17.3 92 0.8 NNW 33 46 18 25 1013.8 1013.5 0.4
17/04:00am 18.7 14.7 17.5 93 0.7 NNW 35 48 19 26 1013.5 1013.2 0.4
17/03:30am 18.5 14.8 17.5 94 0.6 NNW 33 44 18 24 1013.4 1013.1 0.4
17/03:00am 18.5 14.7 17.3 93 0.7 NNW 33 48 18 26 1013.4 1013.1 0.4
17/02:30am 18.6 15.4 17.3 92 0.8 NNW 30 44 16 24 1013.6 1013.3 0.4
17/02:01am 18.6 14.4 17.1 91 0.9 NNW 35 54 19 29 1013.8 1013.5 0.4
17/02:00am 18.6 14.0 17.1 91 0.9 NNW 37 54 20 29 1013.8 1013.5 0.4
17/01:30am 18.7 14.1 17.2 91 0.9 NNW 37 56 20 30 1013.8 1013.5 0.4
17/01:00am 18.8 15.0 17.1 90 1.0 NNW 33 54 18 29 1013.8 1013.5 0.4
17/12:50am 18.9 14.7 17.2 90 1.0 NNW 35 54 19 29 1013.9 1013.6 0.4
17/12:30am 18.7 14.1 17.0 90 1.0 NNW 37 52 20 28 1014.1 1013.8 0.4
17/12:15am 18.8 14.6 17.1 90 1.0 NNW 35 54 19 29 1014.1 1013.8 0.4
17/12:00am 18.9 15.0 17.0 89 1.2 NNW 33 48 18 26 1014.1 1013.8 0.4
 
Date/Time
EST
Tmp

°C
App
Tmp
°C
Dew
Point
°C
Rel
Hum
%
Delta-T

°C
Wind Press
QNH
hPa
Press
MSL
hPa
Rain
since
9 am
mm
Dir
 
Spd
km/h
Gust
km/h
Spd
kts
Gust
kts
16/11:30pm 19.0 15.6 16.8 87 1.3 NNW 30 48 16 26 1014.1 1013.8 0.4
16/11:29pm 19.0 15.6 16.8 87 1.3 NNW 30 48 16 26 1014.2 1013.9 0.4
16/11:00pm 19.3 15.2 16.0 81 2.0 NW 32 43 17 23 1014.4 1014.1 0.4
16/10:30pm 19.5 15.5 15.2 76 2.5 NNW 30 39 16 21 1014.3 1014.0 0.4
16/10:00pm 19.5 17.4 18.0 91 0.9 NNW 26 35 14 19 1014.1 1013.8 0.4
16/09:30pm 19.9 16.5 18.2 90 1.1 NNW 33 44 18 24 1013.8 1013.5 0.4
16/09:00pm 20.0 16.7 18.3 90 1.1 NNW 33 44 18 24 1013.8 1013.5 0.4
16/08:30pm 20.0 15.8 18.1 89 1.2 N 37 46 20 25 1013.7 1013.4 0.4
16/08:00pm 20.1 16.3 18.0 88 1.3 NNW 35 44 19 24 1014.0 1013.7 0.2
16/07:30pm 20.1 16.3 18.0 88 1.3 N 35 41 19 22 1013.9 1013.6 0.2
16/07:00pm 20.5 16.9 17.7 84 1.7 NNW 33 41 18 22 1013.3 1013.0 0.0
16/06:30pm 20.6 13.1 17.0 80 2.2 N 52 65 28 35 1011.9 1011.7 0.0
16/06:00pm 20.7 13.1 15.7 73 3.0 N 50 61 27 33 1011.7 1011.5 0.0
16/05:30pm 20.3 15.6 16.9 81 2.1 N 37 54 20 29 1011.5 1011.3 0.0
16/05:29pm 20.3 16.0 16.9 81 2.1 N 35 54 19 29 1011.5 1011.3 0.0
16/05:00pm 20.3 14.9 17.1 82 2.0 N 41 56 22 30 1011.6 1011.4 0.0
16/04:30pm 20.8 15.9 17.4 81 2.1 N 39 50 21 27 1012.0 1011.8 0.0
16/04:00pm 20.7 17.0 17.5 82 2.0 N 33 46 18 25 1011.8 1011.6 0.0

Latest Capital City Observations: Canberra | Sydney | Melbourne | Brisbane | Adelaide | Perth | Hobart | Darwin

Other Formats:

Comma delimited format used in spreadsheet applications
http://www.bom.gov.au/fwo/IDQ60901/IDQ60901.94594.axf

JavaScript Object Notation format (JSON) in row-major order
http://www.bom.gov.au/fwo/IDQ60901/IDQ60901.94594.json